createdAt,value
2023-04-05T00:01:35.803Z,4.33
2023-04-05T00:04:02.773Z,4.97
2023-04-05T00:06:30.185Z,4.53
2023-04-05T00:08:58.232Z,5.53
2023-04-05T00:11:26.971Z,5.90
2023-04-05T00:13:53.509Z,3.90
2023-04-05T00:16:20.643Z,5.57
2023-04-05T00:18:51.775Z,5.67
2023-04-05T00:21:21.940Z,4.97
2023-04-05T00:23:48.876Z,4.80
2023-04-05T00:26:15.561Z,4.93
2023-04-05T00:28:42.054Z,5.63
2023-04-05T00:31:08.590Z,4.90
2023-04-05T00:33:35.090Z,5.17
2023-04-05T00:36:11.463Z,5.83
2023-04-05T00:38:38.118Z,6.17
2023-04-05T00:41:04.684Z,4.07
2023-04-05T00:43:31.250Z,4.47
2023-04-05T00:45:57.954Z,4.47
2023-04-05T00:48:32.477Z,3.87
2023-04-05T00:50:59.384Z,4.37
2023-04-05T00:53:27.590Z,6.07
2023-04-05T00:55:54.331Z,5.40
2023-04-05T00:58:24.018Z,3.83
2023-04-05T01:01:03.095Z,4.20
2023-04-05T01:03:31.246Z,6.33
2023-04-05T01:06:21.082Z,6.57
2023-04-05T01:08:59.737Z,4.43
2023-04-05T01:11:26.541Z,5.33
2023-04-05T01:14:00.006Z,3.47
2023-04-05T01:16:27.407Z,5.43
2023-04-05T01:18:59.662Z,6.77
2023-04-05T01:21:40.425Z,7.93
2023-04-05T01:24:25.244Z,8.00
2023-04-05T01:27:10.123Z,6.40
2023-04-05T01:29:46.429Z,8.37
2023-04-05T01:32:37.451Z,7.27
2023-04-05T01:35:06.678Z,6.10
2023-04-05T01:37:34.584Z,6.13
2023-04-05T01:40:01.465Z,6.67
2023-04-05T01:42:27.974Z,6.37
2023-04-05T01:44:54.968Z,6.27
2023-04-05T01:47:21.817Z,7.00
2023-04-05T01:49:48.296Z,5.97
2023-04-05T01:52:14.829Z,6.40
2023-04-05T01:54:41.332Z,7.50
2023-04-05T01:57:07.816Z,5.70
2023-04-05T01:59:34.253Z,5.83
2023-04-05T02:02:00.742Z,7.10
2023-04-05T02:04:27.321Z,6.23
2023-04-05T02:06:53.780Z,5.43
2023-04-05T02:09:20.391Z,5.37
2023-04-05T02:11:47.010Z,6.20
2023-04-05T02:14:13.496Z,5.93
2023-04-05T02:16:40.080Z,5.60
2023-04-05T02:19:23.069Z,3.83
2023-04-05T02:21:52.325Z,5.47
2023-04-05T02:24:19.588Z,10.13
2023-04-05T02:26:46.067Z,7.73
2023-04-05T02:29:12.543Z,7.73
2023-04-05T02:31:39.063Z,8.80
2023-04-05T02:34:09.292Z,7.40
2023-04-05T02:36:37.112Z,6.20
2023-04-05T02:39:03.627Z,5.07
2023-04-05T02:41:30.315Z,5.67
2023-04-05T02:43:56.810Z,5.47
2023-04-05T02:46:23.439Z,5.10
2023-04-05T02:48:49.959Z,4.37
2023-04-05T02:51:16.484Z,4.67
2023-04-05T02:53:45.010Z,6.67
2023-04-05T02:56:14.402Z,7.43
2023-04-05T02:58:41.207Z,8.33
2023-04-05T03:01:08.871Z,9.83
2023-04-05T03:03:35.719Z,6.03
2023-04-05T03:06:10.204Z,6.73
2023-04-05T03:08:38.860Z,6.30
2023-04-05T03:11:06.645Z,6.77
2023-04-05T03:13:33.431Z,8.83
2023-04-05T03:15:59.885Z,11.53
2023-04-05T03:18:26.799Z,5.90
2023-04-05T03:20:56.954Z,6.77
2023-04-05T03:23:27.229Z,7.23
2023-04-05T03:25:55.126Z,5.67
2023-04-05T03:28:27.574Z,7.67
2023-04-05T03:30:59.828Z,9.20
2023-04-05T03:33:26.405Z,6.33
2023-04-05T03:35:53.029Z,7.80
2023-04-05T03:38:19.570Z,7.83
2023-04-05T03:40:46.274Z,10.23
2023-04-05T03:43:12.839Z,9.47
2023-04-05T03:45:39.428Z,9.23
2023-04-05T03:48:06.253Z,7.40
2023-04-05T03:50:32.761Z,5.57
2023-04-05T03:52:59.191Z,9.57
2023-04-05T03:55:25.741Z,6.63
2023-04-05T03:57:52.792Z,5.60
2023-04-05T04:00:20.022Z,9.73
2023-04-05T04:02:47.644Z,7.00
2023-04-05T04:05:14.827Z,9.00
2023-04-05T04:07:44.332Z,8.33
2023-04-05T04:10:11.991Z,8.70
2023-04-05T04:12:38.951Z,9.93
2023-04-05T04:15:05.870Z,6.23
2023-04-05T04:17:36.505Z,10.63
2023-04-05T04:20:08.748Z,7.37
2023-04-05T04:22:38.902Z,9.47
2023-04-05T04:25:10.639Z,7.63
2023-04-05T04:27:39.685Z,8.63
2023-04-05T04:30:08.111Z,7.77
2023-04-05T04:32:53.334Z,6.27
2023-04-05T04:35:21.162Z,7.77
2023-04-05T04:37:48.298Z,6.53
2023-04-05T04:40:17.286Z,10.73
2023-04-05T04:43:02.690Z,8.73
2023-04-05T04:45:34.808Z,10.13
2023-04-05T04:48:01.607Z,7.23
2023-04-05T04:50:29.472Z,9.93
2023-04-05T04:52:55.929Z,9.67
2023-04-05T04:55:25.439Z,8.47
2023-04-05T04:57:52.593Z,10.53
2023-04-05T05:00:19.253Z,13.17
2023-04-05T05:02:45.698Z,12.80
2023-04-05T05:05:12.422Z,14.97
2023-04-05T05:07:40.375Z,16.70
2023-04-05T05:10:07.809Z,14.67
2023-04-05T05:12:34.289Z,12.00
2023-04-05T05:15:00.846Z,15.33
2023-04-05T05:17:27.406Z,13.67
2023-04-05T05:19:56.261Z,9.80
2023-04-05T05:22:23.065Z,10.30
2023-04-05T05:24:49.572Z,9.83
2023-04-05T05:27:16.302Z,9.50
2023-04-05T05:29:42.877Z,12.47
2023-04-05T05:32:09.463Z,7.57
2023-04-05T05:34:37.334Z,9.23
2023-04-05T05:37:03.832Z,9.13
2023-04-05T05:39:30.379Z,12.77
2023-04-05T05:41:56.948Z,15.13
2023-04-05T05:44:23.514Z,12.43
2023-04-05T05:46:49.999Z,15.20
2023-04-05T05:49:16.830Z,16.57
2023-04-05T05:51:43.376Z,12.10
2023-04-05T05:54:09.845Z,13.63
2023-04-05T05:56:36.327Z,9.27
2023-04-05T05:59:04.478Z,11.83
2023-04-05T06:01:31.204Z,6.90
2023-04-05T06:03:57.752Z,9.87
2023-04-05T06:06:24.440Z,9.20
2023-04-05T06:08:51.541Z,13.53
2023-04-05T06:11:21.808Z,16.03
2023-04-05T06:13:48.980Z,9.70
2023-04-05T06:16:15.733Z,11.27
2023-04-05T06:18:42.302Z,10.67
2023-04-05T06:21:08.774Z,11.10
2023-04-05T06:23:35.369Z,12.57
2023-04-05T06:26:01.981Z,17.67
2023-04-05T06:28:29.218Z,11.93
2023-04-05T06:30:57.886Z,9.70
2023-04-05T06:33:24.406Z,12.40
2023-04-05T06:35:51.087Z,8.53
2023-04-05T06:38:17.602Z,11.77
2023-04-05T06:40:44.632Z,6.00
2023-04-05T06:43:11.382Z,5.00
2023-04-05T06:45:37.896Z,6.47
2023-04-05T06:48:04.557Z,5.67
2023-04-05T06:50:31.287Z,3.53
2023-04-05T06:52:57.737Z,3.43
2023-04-05T06:55:24.181Z,4.57
2023-04-05T06:57:50.777Z,3.73
2023-04-05T07:00:17.570Z,3.70
2023-04-05T07:02:44.065Z,2.83
2023-04-05T07:05:11.325Z,4.13
2023-04-05T07:07:42.463Z,2.57
2023-04-05T07:10:09.484Z,2.53
2023-04-05T07:12:36.277Z,2.43
2023-04-05T07:15:03.001Z,6.97
2023-04-05T07:17:29.659Z,5.10
2023-04-05T07:19:56.395Z,3.03
2023-04-05T07:22:23.025Z,1.93
2023-04-05T07:24:49.497Z,2.00
2023-04-05T07:27:16.112Z,2.20
2023-04-05T07:29:44.566Z,1.90
2023-04-05T07:32:12.442Z,3.57
2023-04-05T07:34:38.986Z,2.63
2023-04-05T07:37:06.241Z,1.80
2023-04-05T07:39:33.100Z,1.93
2023-04-05T07:41:59.614Z,2.53
2023-04-05T07:44:26.405Z,4.60
2023-04-05T07:46:52.929Z,2.67
2023-04-05T07:49:24.103Z,3.40
2023-04-05T07:51:51.574Z,3.83
2023-04-05T07:54:18.076Z,3.53
2023-04-05T07:56:44.581Z,2.80
2023-04-05T07:59:11.919Z,4.87
2023-04-05T08:01:40.076Z,3.63
2023-04-05T08:04:21.319Z,2.33
2023-04-05T08:06:48.274Z,2.33
2023-04-05T08:09:15.092Z,1.60
2023-04-05T08:11:42.400Z,2.03
2023-04-05T08:14:08.902Z,4.27
2023-04-05T08:16:35.457Z,5.27
2023-04-05T08:19:02.318Z,3.53
2023-04-05T08:21:29.044Z,4.57
2023-04-05T08:23:55.692Z,1.90
2023-04-05T08:26:22.816Z,1.53
2023-04-05T08:40:03.663Z,3.17
2023-04-05T08:42:32.647Z,3.63
2023-04-05T08:44:59.871Z,1.13
2023-04-05T08:47:27.119Z,2.27
2023-04-05T08:49:53.771Z,2.37
2023-04-05T08:52:20.266Z,3.37
2023-04-05T08:54:47.364Z,1.93
2023-04-05T09:01:13.903Z,1.90
2023-04-05T09:03:41.120Z,2.43
2023-04-05T09:06:09.282Z,2.60
2023-04-05T09:08:35.975Z,6.13
2023-04-05T09:11:02.588Z,2.60
2023-04-05T09:13:29.129Z,4.43
2023-04-05T09:15:56.091Z,3.20
2023-04-05T09:18:26.815Z,2.43
2023-04-05T09:21:02.119Z,3.57
2023-04-05T09:23:28.726Z,2.23
2023-04-05T09:25:55.363Z,1.90
2023-04-05T09:28:22.026Z,2.20
2023-04-05T09:30:48.544Z,1.40
2023-04-05T09:33:16.520Z,4.70
2023-04-05T09:35:43.144Z,2.87
2023-04-05T09:38:10.078Z,2.00
2023-04-05T09:40:43.972Z,3.83
2023-04-05T09:43:11.395Z,1.80
2023-04-05T09:45:42.059Z,1.60
2023-04-05T09:48:09.208Z,3.40
2023-04-05T09:50:36.329Z,3.20
2023-04-05T09:53:10.246Z,3.37
2023-04-05T09:55:37.013Z,2.87
2023-04-05T09:58:04.220Z,3.23
2023-04-05T10:00:32.976Z,1.23
2023-04-05T10:02:59.837Z,2.47
2023-04-05T10:05:29.409Z,3.20
2023-04-05T10:07:56.563Z,3.13
2023-04-05T10:10:23.481Z,2.23
2023-04-05T10:12:50.361Z,1.40
2023-04-05T10:15:18.138Z,2.00
2023-04-05T10:17:49.619Z,2.93
2023-04-05T10:20:18.011Z,3.60
2023-04-05T10:23:01.266Z,1.33
2023-04-05T10:25:46.314Z,3.10
2023-04-05T10:28:18.656Z,2.07
2023-04-05T10:30:47.465Z,0.70
2023-04-05T10:33:19.907Z,1.97
2023-04-05T10:35:49.953Z,2.53
2023-04-05T10:38:29.728Z,1.10
2023-04-05T10:45:00.296Z,2.47
2023-04-05T10:47:28.486Z,3.43
2023-04-05T10:49:57.435Z,2.77
2023-04-05T10:52:24.361Z,3.23
2023-04-05T10:54:52.886Z,1.80
2023-04-05T10:57:20.903Z,1.27
2023-04-05T10:59:57.600Z,3.53
2023-04-05T11:02:24.487Z,2.00
2023-04-05T11:04:57.520Z,4.20
2023-04-05T11:07:24.436Z,2.97
2023-04-05T11:10:01.333Z,2.50
2023-04-05T11:12:49.313Z,3.07
2023-04-05T11:15:32.211Z,2.20
2023-04-05T11:18:10.648Z,3.97
2023-04-05T11:20:55.948Z,5.07
2023-04-05T11:23:23.624Z,6.00
2023-04-05T11:25:53.998Z,2.43
2023-04-05T11:28:23.608Z,3.57
2023-04-05T11:30:54.315Z,1.57
2023-04-05T11:33:52.150Z,3.40
2023-04-05T11:36:31.530Z,1.57
2023-04-05T11:39:17.028Z,1.70
2023-04-05T11:41:44.398Z,3.57
2023-04-05T11:44:17.367Z,2.47
2023-04-05T11:46:43.993Z,2.63
2023-04-05T11:49:10.727Z,2.10
2023-04-05T11:51:37.719Z,2.67
2023-04-05T11:54:04.378Z,2.20
2023-04-05T11:56:31.468Z,3.20
2023-04-05T11:58:58.587Z,2.07
2023-04-05T12:01:25.580Z,2.03
2023-04-05T12:03:58.028Z,3.67
2023-04-05T12:06:25.948Z,1.63
2023-04-05T12:08:53.526Z,2.17
2023-04-05T12:11:27.301Z,2.37
2023-04-05T12:13:54.285Z,1.70
2023-04-05T12:16:28.436Z,2.33
2023-04-05T12:18:55.913Z,1.90
2023-04-05T12:21:23.262Z,2.97
2023-04-05T12:23:50.308Z,4.23
2023-04-05T12:26:17.255Z,4.53
2023-04-05T12:28:56.640Z,4.00
2023-04-05T12:31:35.675Z,4.37
2023-04-05T12:34:05.180Z,2.97
2023-04-05T12:36:50.443Z,1.93
2023-04-05T12:39:21.362Z,3.17
2023-04-05T12:41:58.853Z,2.90
2023-04-05T12:44:30.043Z,2.60
2023-04-05T12:47:10.478Z,2.50
2023-04-05T12:49:39.812Z,1.60
2023-04-05T12:52:06.471Z,3.17
2023-04-05T12:54:34.154Z,2.63
2023-04-05T12:57:02.222Z,4.83
2023-04-05T12:59:28.997Z,1.90
2023-04-05T13:01:55.851Z,4.00
2023-04-05T13:04:29.960Z,9.37
2023-04-05T13:06:56.711Z,2.20
2023-04-05T13:09:23.288Z,2.17
2023-04-05T13:11:53.935Z,2.83
2023-04-05T13:14:22.125Z,2.97
2023-04-05T13:16:48.684Z,4.57
2023-04-05T13:19:15.518Z,3.27
2023-04-05T13:21:42.118Z,6.77
2023-04-05T13:24:10.867Z,13.20
2023-04-05T13:26:39.088Z,12.07
2023-04-05T13:29:05.883Z,6.80
2023-04-05T13:31:33.950Z,10.73
2023-04-05T13:34:00.664Z,11.47
2023-04-05T13:36:27.615Z,7.47
2023-04-05T13:38:54.216Z,6.43
2023-04-05T13:41:21.288Z,2.40
2023-04-05T13:43:50.878Z,8.70
2023-04-05T13:46:17.651Z,7.63
2023-04-05T13:48:44.669Z,9.70
2023-04-05T13:51:11.208Z,12.17
2023-04-05T13:53:37.800Z,7.63
2023-04-05T13:59:52.603Z,5.87
2023-04-05T14:02:20.833Z,7.00
2023-04-05T14:04:49.605Z,6.97
2023-04-05T14:07:16.194Z,10.70
2023-04-05T14:09:44.781Z,6.40
2023-04-05T14:16:11.526Z,6.33
2023-04-05T14:18:38.036Z,5.30
2023-04-05T14:21:04.582Z,9.07
2023-04-05T14:23:31.161Z,3.70
2023-04-05T14:26:07.236Z,3.57
2023-04-05T14:28:33.836Z,2.97
2023-04-05T14:31:00.609Z,4.77
2023-04-05T14:33:27.256Z,5.63
2023-04-05T14:35:54.106Z,4.30
2023-04-05T14:38:20.769Z,9.53
2023-04-05T14:40:47.233Z,4.53
2023-04-05T14:43:13.972Z,5.20
2023-04-05T14:45:40.503Z,3.57
2023-04-05T14:48:07.057Z,4.97
2023-04-05T14:50:33.645Z,3.90
2023-04-05T14:53:00.802Z,5.00
2023-04-05T14:55:27.845Z,8.53
2023-04-05T14:57:54.568Z,14.97
2023-04-05T15:00:21.402Z,9.87
2023-04-05T15:02:48.307Z,6.07
2023-04-05T15:05:14.912Z,3.57
2023-04-05T15:07:41.442Z,4.77
2023-04-05T15:10:08.105Z,3.60
2023-04-05T15:12:34.716Z,1.77
2023-04-05T15:15:32.890Z,3.00
2023-04-05T15:17:59.468Z,2.77
2023-04-05T15:20:26.626Z,3.27
2023-04-05T15:22:53.189Z,4.77
2023-04-05T15:25:19.770Z,2.30
2023-04-05T15:27:46.342Z,2.23
2023-04-05T15:30:13.179Z,2.80
2023-04-05T15:32:39.836Z,3.40
2023-04-05T15:38:47.339Z,5.33
2023-04-05T15:41:13.918Z,4.83
2023-04-05T15:43:40.532Z,6.43
2023-04-05T15:46:07.168Z,3.70
2023-04-05T15:48:33.723Z,2.57
2023-04-05T15:51:00.358Z,4.83
2023-04-05T15:53:29.263Z,8.87
2023-04-05T15:55:58.271Z,3.57
2023-04-05T15:58:24.828Z,5.37
2023-04-05T16:00:51.373Z,4.63
2023-04-05T16:03:18.018Z,5.00
2023-04-05T16:05:44.601Z,2.83
2023-04-05T16:08:11.484Z,6.60
2023-04-05T16:10:38.074Z,7.10
2023-04-05T16:13:04.595Z,13.77
2023-04-05T16:15:32.606Z,20.57
2023-04-05T16:18:04.228Z,7.97
2023-04-05T16:20:30.894Z,17.33
2023-04-05T16:22:57.410Z,6.50
2023-04-05T16:25:23.917Z,12.37
2023-04-05T16:27:50.422Z,11.30
2023-04-05T16:30:17.067Z,9.97
2023-04-05T16:32:43.583Z,6.47
2023-04-05T16:35:10.322Z,6.43
2023-04-05T16:37:37.108Z,8.80
2023-04-05T16:40:04.459Z,12.00
2023-04-05T16:42:30.932Z,19.53
2023-04-05T16:44:57.468Z,5.10
2023-04-05T16:47:24.022Z,4.10
2023-04-05T16:49:51.386Z,4.83
2023-04-05T16:52:17.986Z,6.23
2023-04-05T16:54:44.463Z,6.20
2023-04-05T16:57:11.034Z,3.80
2023-04-05T16:59:37.584Z,6.67
2023-04-05T17:02:04.155Z,5.03
2023-04-05T17:04:45.352Z,4.27
2023-04-05T17:07:15.006Z,6.27
2023-04-05T17:09:41.468Z,6.63
2023-04-05T17:12:10.741Z,5.93
2023-04-05T17:14:38.948Z,7.20
2023-04-05T17:17:05.678Z,8.20
2023-04-05T17:19:32.222Z,4.07
2023-04-05T17:21:58.696Z,3.77
2023-04-05T17:24:26.602Z,4.07
2023-04-05T17:26:53.101Z,3.20
2023-04-05T17:29:19.672Z,3.20
2023-04-05T17:31:46.303Z,3.73
2023-04-05T17:34:14.994Z,4.60
2023-04-05T17:36:41.600Z,4.63
2023-04-05T17:39:08.120Z,3.40
2023-04-05T17:41:35.830Z,4.50
2023-04-05T17:44:08.592Z,10.70
2023-04-05T17:46:42.910Z,7.97
2023-04-05T17:49:22.463Z,14.23
2023-04-05T17:51:54.982Z,15.07
2023-04-05T17:54:21.509Z,10.80
2023-04-05T17:56:48.028Z,7.37
2023-04-05T17:59:14.718Z,8.47
2023-04-05T18:01:41.530Z,7.93
2023-04-05T18:04:10.134Z,8.03
2023-04-05T18:06:38.468Z,3.90
2023-04-05T18:09:05.295Z,6.47
2023-04-05T18:11:32.192Z,10.53
2023-04-05T18:13:58.760Z,14.57
2023-04-05T18:16:25.415Z,9.00
2023-04-05T18:18:52.032Z,8.07
2023-04-05T18:21:18.703Z,10.73
2023-04-05T18:24:04.039Z,14.37
2023-04-05T18:26:33.837Z,12.33
2023-04-05T18:29:00.440Z,14.90
2023-04-05T18:31:27.346Z,10.83
2023-04-05T18:33:54.001Z,12.50
2023-04-05T18:36:23.819Z,13.70
2023-04-05T18:38:50.515Z,12.60
2023-04-05T18:41:17.226Z,13.27
2023-04-05T18:43:43.808Z,13.73
2023-04-05T18:46:10.592Z,15.53
2023-04-05T18:48:38.958Z,16.17
2023-04-05T18:51:06.242Z,22.27
2023-04-05T18:53:36.677Z,17.80
2023-04-05T18:56:03.281Z,19.27
2023-04-05T18:58:29.842Z,17.00
2023-04-05T19:00:56.783Z,17.13
2023-04-05T19:03:23.477Z,18.67
2023-04-05T19:05:51.149Z,16.00
2023-04-05T19:08:18.653Z,17.77
2023-04-05T19:10:45.527Z,20.20
2023-04-05T19:13:12.010Z,19.60
2023-04-05T19:15:41.488Z,23.13
2023-04-05T19:18:08.132Z,23.60
2023-04-05T19:20:34.661Z,20.80
2023-04-05T19:23:01.127Z,18.73
2023-04-05T19:25:27.801Z,16.47
2023-04-05T19:27:55.146Z,19.53
2023-04-05T19:30:21.738Z,19.87
2023-04-05T19:32:48.648Z,16.70
2023-04-05T19:35:31.228Z,28.77
2023-04-05T19:37:58.102Z,35.67
2023-04-05T19:40:37.858Z,40.80
2023-04-05T19:43:10.307Z,33.90
2023-04-05T19:45:37.081Z,33.03
2023-04-05T19:48:07.818Z,32.07
2023-04-05T19:50:37.525Z,36.97
2023-04-05T19:53:06.980Z,33.63
2023-04-05T19:55:33.527Z,34.17
2023-04-05T19:58:01.536Z,31.47
2023-04-05T20:00:33.945Z,29.27
2023-04-05T20:03:03.543Z,34.00
2023-04-05T20:05:42.208Z,40.47
2023-04-05T20:08:08.799Z,38.23
2023-04-05T20:10:42.320Z,40.10
2023-04-05T20:13:08.947Z,41.40
2023-04-05T20:15:39.594Z,40.30
2023-04-05T20:18:06.582Z,41.43
2023-04-05T20:20:34.180Z,37.77
2023-04-05T20:23:00.750Z,39.93
2023-04-05T20:25:36.033Z,32.47
2023-04-05T20:28:03.987Z,21.67
2023-04-05T20:30:31.527Z,19.97
2023-04-05T20:32:59.115Z,19.17
2023-04-05T20:35:32.716Z,22.83
2023-04-05T20:38:04.825Z,22.70
2023-04-05T20:40:31.712Z,17.07
2023-04-05T20:42:58.272Z,17.83
2023-04-05T20:45:24.850Z,14.80
2023-04-05T20:47:51.580Z,14.60
2023-04-05T20:50:18.177Z,14.80
2023-04-05T20:52:44.697Z,12.67
2023-04-05T20:55:11.165Z,14.57
2023-04-05T20:57:37.873Z,11.07
2023-04-05T21:00:04.633Z,14.47
2023-04-05T21:02:31.407Z,15.23
2023-04-05T21:04:58.275Z,10.67
2023-04-05T21:07:24.811Z,13.00
2023-04-05T21:09:51.295Z,14.50
2023-04-05T21:12:17.784Z,18.20
2023-04-05T21:14:44.344Z,18.07
2023-04-05T21:17:10.964Z,15.73
2023-04-05T21:19:37.591Z,17.57
2023-04-05T21:22:04.134Z,25.77
2023-04-05T21:24:30.635Z,22.83
2023-04-05T21:26:57.330Z,20.93
2023-04-05T21:29:23.948Z,22.67
2023-04-05T21:31:50.623Z,30.90
2023-04-05T21:34:17.222Z,31.73
2023-04-05T21:36:43.756Z,24.70
2023-04-05T21:39:10.527Z,20.03
2023-04-05T21:41:37.289Z,18.67
2023-04-05T21:44:03.814Z,15.37
2023-04-05T21:46:36.145Z,12.90
2023-04-05T21:49:02.643Z,9.97
2023-04-05T21:51:29.201Z,10.23
2023-04-05T21:53:55.767Z,13.50
2023-04-05T21:56:22.209Z,12.40
2023-04-05T21:58:48.768Z,15.10
2023-04-05T22:01:15.414Z,16.40
2023-04-05T22:03:41.979Z,14.07
2023-04-05T22:09:36.533Z,12.00
2023-04-05T22:12:03.234Z,23.93
2023-04-05T22:14:29.916Z,15.17
2023-04-05T22:16:59.342Z,11.37
2023-04-05T22:19:25.981Z,13.20
2023-04-05T22:21:55.183Z,12.30
2023-04-05T22:24:24.159Z,11.13
2023-04-05T22:26:53.666Z,10.33
2023-04-05T22:29:23.148Z,11.37
2023-04-05T22:31:50.175Z,12.03
2023-04-05T22:34:16.750Z,10.60
2023-04-05T22:36:43.217Z,10.80
2023-04-05T22:39:10.665Z,15.90
2023-04-05T22:41:40.369Z,14.50
2023-04-05T22:44:07.024Z,15.10
2023-04-05T22:46:33.634Z,11.67
2023-04-05T22:49:01.214Z,12.13
2023-04-05T22:51:27.786Z,11.50
2023-04-05T22:53:54.251Z,9.87
2023-04-05T22:56:21.598Z,12.20
2023-04-05T22:58:49.287Z,12.17
2023-04-05T23:01:15.886Z,13.67
2023-04-05T23:03:42.393Z,10.97
2023-04-05T23:06:08.893Z,11.93
2023-04-05T23:08:38.181Z,10.50
2023-04-05T23:11:04.883Z,9.60
2023-04-05T23:13:31.575Z,10.77
2023-04-05T23:15:58.076Z,11.10
2023-04-05T23:18:24.697Z,9.20
2023-04-05T23:20:51.301Z,7.27
2023-04-05T23:23:17.874Z,6.50
2023-04-05T23:25:44.459Z,6.73
2023-04-05T23:28:11.079Z,8.93
2023-04-05T23:30:37.609Z,10.33
2023-04-05T23:33:04.224Z,8.17
2023-04-05T23:35:30.892Z,13.60
2023-04-05T23:37:57.376Z,9.23
2023-04-05T23:40:23.885Z,12.00
2023-04-05T23:42:50.594Z,10.63
2023-04-05T23:45:17.064Z,10.03
2023-04-05T23:47:43.635Z,9.83
2023-04-05T23:50:10.437Z,10.53
2023-04-05T23:52:37.032Z,9.33
2023-04-05T23:55:04.745Z,11.37
2023-04-05T23:57:31.363Z,7.70
2023-04-05T23:59:57.858Z,11.10
